createdAt,value
2024-03-05T00:01:18.286Z,6.13
2024-03-05T00:04:22.219Z,6.05
2024-03-05T00:07:24.870Z,6.03
2024-03-05T00:10:27.520Z,6.00
2024-03-05T00:13:30.251Z,6.02
2024-03-05T00:16:32.850Z,6.04
2024-03-05T00:19:37.331Z,6.05
2024-03-05T00:22:39.867Z,5.98
2024-03-05T00:25:43.396Z,5.94
2024-03-05T00:28:46.048Z,5.81
2024-03-05T00:31:48.759Z,5.70
2024-03-05T00:34:52.778Z,5.61
2024-03-05T00:37:55.883Z,5.53
2024-03-05T00:40:58.480Z,5.52
2024-03-05T00:44:01.117Z,5.45
2024-03-05T00:47:03.783Z,5.37
2024-03-05T00:50:09.041Z,5.39
2024-03-05T00:53:11.548Z,5.38
2024-03-05T00:56:14.388Z,5.45
2024-03-05T00:59:16.985Z,5.36
2024-03-05T01:02:19.549Z,5.27
2024-03-05T01:05:23.421Z,5.24
2024-03-05T01:08:25.957Z,5.14
2024-03-05T01:11:28.536Z,5.00
2024-03-05T01:14:32.388Z,4.90
2024-03-05T01:17:35.179Z,4.82
2024-03-05T01:20:42.534Z,4.87
2024-03-05T01:23:45.073Z,4.78
2024-03-05T01:26:47.612Z,4.70
2024-03-05T01:29:51.287Z,4.66
2024-03-05T01:32:57.919Z,4.58
2024-03-05T01:36:01.905Z,4.54
2024-03-05T01:39:05.438Z,4.38
2024-03-05T01:42:08.556Z,4.27
2024-03-05T01:45:11.704Z,4.30
2024-03-05T01:48:15.726Z,4.20
2024-03-05T01:51:21.182Z,4.15
2024-03-05T01:54:24.798Z,4.08
2024-03-05T01:57:28.477Z,4.05
2024-03-05T02:00:32.433Z,3.97
2024-03-05T02:03:35.550Z,3.95
2024-03-05T02:06:42.938Z,4.04
2024-03-05T02:09:46.455Z,4.05
2024-03-05T02:12:48.976Z,3.98
2024-03-05T02:15:51.647Z,3.99
2024-03-05T02:18:56.041Z,3.95
2024-03-05T02:22:02.082Z,3.92
2024-03-05T02:25:04.819Z,3.88
2024-03-05T02:28:09.542Z,3.80
2024-03-05T02:31:12.193Z,3.81
2024-03-05T02:34:14.876Z,3.74
2024-03-05T02:37:19.727Z,3.83
2024-03-05T02:40:22.452Z,3.67
2024-03-05T02:43:25.030Z,3.62
2024-03-05T02:46:27.579Z,3.62
2024-03-05T02:49:30.108Z,3.65
2024-03-05T02:52:34.512Z,3.58
2024-03-05T02:55:40.027Z,3.55
2024-03-05T02:58:43.276Z,3.43
2024-03-05T03:01:48.641Z,3.37
2024-03-05T03:04:52.707Z,3.35
2024-03-05T03:07:56.804Z,3.39
2024-03-05T03:10:59.450Z,3.19
2024-03-05T03:14:04.636Z,3.16
2024-03-05T03:17:08.129Z,3.22
2024-03-05T03:20:16.668Z,3.17
2024-03-05T03:23:20.530Z,3.17
2024-03-05T03:26:23.667Z,3.09
2024-03-05T03:29:27.771Z,2.97
2024-03-05T03:32:30.805Z,2.86
2024-03-05T03:35:33.437Z,2.75
2024-03-05T03:38:37.418Z,2.77
2024-03-05T03:41:41.075Z,2.66
2024-03-05T03:44:44.440Z,2.67
2024-03-05T03:47:47.926Z,2.65
2024-03-05T03:50:50.552Z,2.58
2024-03-05T03:53:55.272Z,2.47
2024-03-05T03:56:57.843Z,2.22
2024-03-05T04:00:01.264Z,2.10
2024-03-05T04:03:04.129Z,1.97
2024-03-05T04:06:06.664Z,1.91
2024-03-05T04:09:14.828Z,1.84
2024-03-05T04:12:17.346Z,1.72
2024-03-05T04:15:20.568Z,1.75
2024-03-05T04:18:23.463Z,1.70
2024-03-05T04:21:26.935Z,1.67
2024-03-05T04:24:32.210Z,1.63
2024-03-05T04:27:36.688Z,1.46
2024-03-05T04:30:40.097Z,1.52
2024-03-05T04:33:44.164Z,1.46
2024-03-05T04:36:46.695Z,1.27
2024-03-05T04:39:50.590Z,1.37
2024-03-05T04:42:53.202Z,1.36
2024-03-05T04:45:55.813Z,1.31
2024-03-05T04:48:58.339Z,1.36
2024-03-05T04:52:00.873Z,1.27
2024-03-05T04:55:05.258Z,1.26
2024-03-05T04:58:09.089Z,1.24
2024-03-05T05:01:11.629Z,1.09
2024-03-05T05:04:14.175Z,1.05
2024-03-05T05:07:17.569Z,1.01
2024-03-05T05:10:21.622Z,1.04
2024-03-05T05:13:24.175Z,1.03
2024-03-05T05:16:27.888Z,1.05
2024-03-05T05:19:30.577Z,1.05
2024-03-05T05:22:33.445Z,1.02
2024-03-05T05:25:38.545Z,0.95
2024-03-05T05:28:41.717Z,0.86
2024-03-05T05:31:45.251Z,0.88
2024-03-05T05:34:47.821Z,1.01
2024-03-05T05:37:50.481Z,1.00
2024-03-05T05:40:54.649Z,1.08
2024-03-05T05:43:57.201Z,0.96
2024-03-05T05:50:18.702Z,0.90
2024-03-05T05:53:21.275Z,0.89
2024-03-05T05:56:25.103Z,0.95
2024-03-05T05:59:28.174Z,0.97
2024-03-05T06:02:30.851Z,0.93
2024-03-05T06:05:36.660Z,0.95
2024-03-05T06:08:39.219Z,0.98
2024-03-05T06:11:44.391Z,0.99
2024-03-05T06:14:46.960Z,1.00
2024-03-05T06:17:50.549Z,1.11
2024-03-05T06:20:53.080Z,1.16
2024-03-05T06:23:55.892Z,1.28
2024-03-05T06:27:00.271Z,1.48
2024-03-05T06:30:02.858Z,1.56
2024-03-05T06:33:09.988Z,1.59
2024-03-05T06:36:13.611Z,1.70
2024-03-05T06:39:21.012Z,1.74
2024-03-05T06:42:25.356Z,1.97
2024-03-05T06:45:29.248Z,1.96
2024-03-05T06:48:34.608Z,2.13
2024-03-05T06:51:43.136Z,2.17
2024-03-05T06:55:03.688Z,2.26
2024-03-05T06:58:08.368Z,2.27
2024-03-05T07:01:11.078Z,2.55
2024-03-05T07:04:13.627Z,2.66
2024-03-05T07:07:16.415Z,2.76
2024-03-05T07:10:22.572Z,2.92
2024-03-05T07:13:29.975Z,3.01
2024-03-05T07:16:33.411Z,2.81
2024-03-05T07:19:36.996Z,3.09
2024-03-05T07:22:41.859Z,2.76
2024-03-05T07:25:44.774Z,2.57
2024-03-05T07:28:49.371Z,2.66
2024-03-05T07:31:52.113Z,2.68
2024-03-05T07:34:54.659Z,2.74
2024-03-05T07:37:58.382Z,2.88
2024-03-05T07:41:01.544Z,3.07
2024-03-05T07:44:06.079Z,3.01
2024-03-05T07:47:08.722Z,3.20
2024-03-05T07:50:13.329Z,3.31
2024-03-05T07:53:15.864Z,3.55
2024-03-05T07:56:18.451Z,3.69
2024-03-05T07:59:23.442Z,3.99
2024-03-05T08:02:26.423Z,4.06
2024-03-05T08:05:30.328Z,3.83
2024-03-05T08:08:33.020Z,3.89
2024-03-05T08:11:36.686Z,3.75
2024-03-05T08:14:40.702Z,3.89
2024-03-05T08:17:46.992Z,3.68
2024-03-05T08:20:49.595Z,3.88
2024-03-05T08:23:54.878Z,3.81
2024-03-05T08:26:59.126Z,3.96
2024-03-05T08:30:03.012Z,4.10
2024-03-05T08:33:06.305Z,3.61
2024-03-05T08:36:09.246Z,4.00
2024-03-05T08:39:18.969Z,4.34
2024-03-05T08:42:22.518Z,5.02
2024-03-05T08:45:26.367Z,5.23
2024-03-05T08:48:29.729Z,5.19
2024-03-05T08:51:32.276Z,5.01
2024-03-05T08:54:35.946Z,5.06
2024-03-05T08:57:38.975Z,5.23
2024-03-05T09:00:43.880Z,5.46
2024-03-05T09:03:46.707Z,5.37
2024-03-05T09:06:49.879Z,5.01
2024-03-05T09:09:52.948Z,5.34
2024-03-05T09:12:56.517Z,5.49
2024-03-05T09:16:00.393Z,5.38
2024-03-05T09:19:02.921Z,5.29
2024-03-05T09:22:06.491Z,6.06
2024-03-05T09:25:09.354Z,5.90
2024-03-05T09:28:12.500Z,6.07
2024-03-05T09:31:18.628Z,5.91
2024-03-05T09:34:21.308Z,6.42
2024-03-05T09:37:24.559Z,6.89
2024-03-05T09:40:27.304Z,7.51
2024-03-05T09:43:31.170Z,7.12
2024-03-05T09:46:35.730Z,6.78
2024-03-05T09:49:38.424Z,6.29
2024-03-05T09:52:41.106Z,6.85
2024-03-05T09:55:44.909Z,6.65
2024-03-05T09:58:49.746Z,6.31
2024-03-05T10:01:53.818Z,6.46
2024-03-05T10:04:57.959Z,7.88
2024-03-05T10:08:00.790Z,7.05
2024-03-05T10:11:04.873Z,7.78
2024-03-05T10:14:09.227Z,8.80
2024-03-05T10:17:13.893Z,7.83
2024-03-05T10:20:29.739Z,7.30
2024-03-05T10:23:32.299Z,6.67
2024-03-05T10:26:36.694Z,6.52
2024-03-05T10:29:40.532Z,6.60
2024-03-05T10:32:44.359Z,6.86
2024-03-05T10:35:51.881Z,6.28
2024-03-05T10:38:55.053Z,6.10
2024-03-05T10:42:00.890Z,6.23
2024-03-05T10:45:03.976Z,5.84
2024-03-05T10:48:11.344Z,5.99
2024-03-05T10:51:17.227Z,6.11
2024-03-05T10:54:20.320Z,6.27
2024-03-05T10:57:22.920Z,6.53
2024-03-05T11:00:25.395Z,6.88
2024-03-05T11:03:39.515Z,7.37
2024-03-05T11:06:42.605Z,7.38
2024-03-05T11:09:45.468Z,7.76
2024-03-05T11:12:49.098Z,7.76
2024-03-05T11:15:52.479Z,7.61
2024-03-05T11:18:57.654Z,7.42
2024-03-05T11:22:03.315Z,6.86
2024-03-05T11:25:07.348Z,6.85
2024-03-05T11:28:12.192Z,6.80
2024-03-05T11:31:19.943Z,6.92
2024-03-05T11:34:25.281Z,6.83
2024-03-05T11:37:27.932Z,6.21
2024-03-05T11:40:33.781Z,6.52
2024-03-05T11:43:36.829Z,6.37
2024-03-05T11:46:49.922Z,6.13
2024-03-05T11:49:54.019Z,6.02
2024-03-05T11:52:56.668Z,6.15
2024-03-05T11:56:09.427Z,6.23
2024-03-05T11:59:13.426Z,6.01
2024-03-05T12:02:16.673Z,5.77
2024-03-05T12:05:20.793Z,5.81
2024-03-05T12:08:24.680Z,5.77
2024-03-05T12:11:27.297Z,5.63
2024-03-05T12:14:30.892Z,5.54
2024-03-05T12:17:34.922Z,5.61
2024-03-05T12:20:39.394Z,5.63
2024-03-05T12:23:43.474Z,5.78
2024-03-05T12:26:46.712Z,5.54
2024-03-05T12:29:50.703Z,5.65
2024-03-05T12:32:55.414Z,5.76
2024-03-05T12:35:59.641Z,5.86
2024-03-05T12:39:02.503Z,5.97
2024-03-05T12:42:07.411Z,6.29
2024-03-05T12:45:13.066Z,6.41
2024-03-05T12:48:15.677Z,6.23
2024-03-05T12:51:19.531Z,6.57
2024-03-05T12:54:22.459Z,6.51
2024-03-05T12:57:25.935Z,6.65
2024-03-05T13:00:28.459Z,6.21
2024-03-05T13:03:30.966Z,6.22
2024-03-05T13:06:35.236Z,6.13
2024-03-05T13:09:39.267Z,6.04
2024-03-05T13:12:43.214Z,5.97
2024-03-05T13:15:45.954Z,6.16
2024-03-05T13:18:49.461Z,6.21
2024-03-05T13:21:53.409Z,6.26
2024-03-05T13:24:56.256Z,6.22
2024-03-05T13:27:59.089Z,6.18
2024-03-05T13:31:01.606Z,6.09
2024-03-05T13:34:05.611Z,6.07
2024-03-05T13:37:10.248Z,5.99
2024-03-05T13:40:14.232Z,5.88
2024-03-05T13:43:16.803Z,5.81
2024-03-05T13:46:19.302Z,5.91
2024-03-05T13:49:25.065Z,5.99
2024-03-05T13:52:29.772Z,6.06
2024-03-05T13:55:32.331Z,6.06
2024-03-05T13:58:36.723Z,6.10
2024-03-05T14:01:40.247Z,6.19
2024-03-05T14:04:43.116Z,6.17
2024-03-05T14:07:48.387Z,6.20
2024-03-05T14:10:52.821Z,5.99
2024-03-05T14:13:55.625Z,5.99
2024-03-05T14:16:58.839Z,6.01
2024-03-05T14:20:01.472Z,6.04
2024-03-05T14:23:05.688Z,6.04
2024-03-05T14:26:09.817Z,6.07
2024-03-05T14:29:12.516Z,6.01
2024-03-05T14:32:15.194Z,6.17
2024-03-05T14:35:24.818Z,6.20
2024-03-05T14:38:32.393Z,6.11
2024-03-05T14:41:34.973Z,5.85
2024-03-05T14:44:38.362Z,5.73
2024-03-05T14:47:41.442Z,5.85
2024-03-05T14:50:44.002Z,5.81
2024-03-05T14:53:47.881Z,5.90
2024-03-05T14:56:50.402Z,5.96
2024-03-05T14:59:52.909Z,5.75
2024-03-05T15:02:55.941Z,5.81
2024-03-05T15:05:58.493Z,5.88
2024-03-05T15:09:02.389Z,5.78
2024-03-05T15:12:05.827Z,5.79
2024-03-05T15:15:10.157Z,5.84
2024-03-05T15:18:12.799Z,5.78
2024-03-05T15:21:16.038Z,5.66
2024-03-05T15:24:19.890Z,5.73
2024-03-05T15:27:23.258Z,5.74
2024-03-05T15:30:28.991Z,5.76
2024-03-05T15:33:33.110Z,5.79
2024-03-05T15:36:35.651Z,5.67
2024-03-05T15:39:39.460Z,5.73
2024-03-05T15:42:42.145Z,5.66
2024-03-05T15:45:44.713Z,5.74
2024-03-05T15:48:47.783Z,5.73
2024-03-05T15:51:50.314Z,5.75
2024-03-05T15:54:54.157Z,5.84
2024-03-05T15:58:09.230Z,5.90
2024-03-05T16:01:13.078Z,5.91
2024-03-05T16:07:24.525Z,5.91
2024-03-05T16:10:35.532Z,5.94
2024-03-05T16:13:41.368Z,5.94
2024-03-05T16:16:45.191Z,5.92
2024-03-05T16:19:47.876Z,5.90
2024-03-05T16:22:53.538Z,5.83
2024-03-05T16:25:58.238Z,5.76
2024-03-05T16:29:01.434Z,5.67
2024-03-05T16:32:04.325Z,5.64
2024-03-05T16:35:07.250Z,5.64
2024-03-05T16:38:10.462Z,5.58
2024-03-05T16:41:15.199Z,5.57
2024-03-05T16:44:17.995Z,5.49
2024-03-05T16:47:20.578Z,5.46
2024-03-05T16:50:27.088Z,5.55
2024-03-05T16:53:30.759Z,5.43
2024-03-05T16:56:34.638Z,5.44
2024-03-05T16:59:37.151Z,5.41
2024-03-05T17:02:44.465Z,5.36
2024-03-05T17:05:51.833Z,5.38
2024-03-05T17:08:56.929Z,5.38
2024-03-05T17:12:01.664Z,5.41
2024-03-05T17:15:07.031Z,5.40
2024-03-05T17:18:10.621Z,5.42
2024-03-05T17:21:14.240Z,5.36
2024-03-05T17:24:16.943Z,5.31
2024-03-05T17:27:21.955Z,5.30
2024-03-05T17:30:24.637Z,5.29
2024-03-05T17:33:27.667Z,5.31
2024-03-05T17:36:30.760Z,5.32
2024-03-05T17:39:33.297Z,5.30
2024-03-05T17:42:37.726Z,5.30
2024-03-05T17:45:40.789Z,5.30
2024-03-05T17:48:43.427Z,5.29
2024-03-05T17:51:46.290Z,5.26
2024-03-05T17:54:50.661Z,5.27
2024-03-05T17:57:54.551Z,5.28
2024-03-05T18:00:57.146Z,5.22
2024-03-05T18:03:59.807Z,5.14
2024-03-05T18:07:05.474Z,5.16
2024-03-05T18:10:09.046Z,5.21
2024-03-05T18:13:14.681Z,5.23
2024-03-05T18:16:19.669Z,5.15
2024-03-05T18:19:22.231Z,5.18
2024-03-05T18:22:25.631Z,5.24
2024-03-05T18:25:35.329Z,5.23
2024-03-05T18:28:41.576Z,5.26
2024-03-05T18:31:49.666Z,5.27
2024-03-05T18:34:52.819Z,5.24
2024-03-05T18:37:56.443Z,5.25
2024-03-05T18:41:01.289Z,5.20
2024-03-05T18:44:05.849Z,5.23
2024-03-05T18:47:11.132Z,5.16
2024-03-05T18:50:15.135Z,5.18
2024-03-05T18:53:17.890Z,5.17
2024-03-05T18:56:20.557Z,5.18
2024-03-05T18:59:27.239Z,5.17
2024-03-05T19:02:29.771Z,5.07
2024-03-05T19:05:32.965Z,5.07
2024-03-05T19:08:35.454Z,5.02
2024-03-05T19:11:38.172Z,4.97
2024-03-05T19:14:42.808Z,5.05
2024-03-05T19:17:48.557Z,4.90
2024-03-05T19:20:51.638Z,4.85
2024-03-05T19:23:54.947Z,4.88
2024-03-05T19:26:57.440Z,4.92
2024-03-05T19:30:01.357Z,4.97
2024-03-05T19:33:03.944Z,4.89
2024-03-05T19:36:09.810Z,4.89
2024-03-05T19:39:14.081Z,4.80
2024-03-05T19:42:17.440Z,4.71
2024-03-05T19:45:21.782Z,4.73
2024-03-05T19:48:26.119Z,4.76
2024-03-05T19:51:29.417Z,4.72
2024-03-05T19:54:32.121Z,4.63
2024-03-05T19:57:35.729Z,4.71
2024-03-05T20:00:39.808Z,4.67
2024-03-05T20:03:42.416Z,4.59
2024-03-05T20:06:45.059Z,4.63
2024-03-05T20:09:48.430Z,4.69
2024-03-05T20:12:51.164Z,4.72
2024-03-05T20:15:56.037Z,4.64
2024-03-05T20:18:58.711Z,4.64
2024-03-05T20:22:01.240Z,4.64
2024-03-05T20:25:04.095Z,4.62
2024-03-05T20:28:10.871Z,4.61
2024-03-05T20:31:14.776Z,4.66
2024-03-05T20:34:18.074Z,4.62
2024-03-05T20:37:21.668Z,4.68
2024-03-05T20:40:28.662Z,4.58
2024-03-05T20:43:31.476Z,4.56
2024-03-05T20:46:36.686Z,4.54
2024-03-05T20:49:39.417Z,4.57
2024-03-05T20:52:42.495Z,4.53
2024-03-05T20:55:45.424Z,4.54
2024-03-05T20:58:48.316Z,4.56
2024-03-05T21:01:54.158Z,4.59
2024-03-05T21:04:56.774Z,4.56
2024-03-05T21:07:59.664Z,4.54
2024-03-05T21:11:02.444Z,4.54
2024-03-05T21:14:05.049Z,4.51
2024-03-05T21:17:08.977Z,4.54
2024-03-05T21:20:12.892Z,4.54
2024-03-05T21:23:18.414Z,4.47
2024-03-05T21:26:35.439Z,4.46
2024-03-05T21:29:43.859Z,4.49
2024-03-05T21:32:47.706Z,4.52
2024-03-05T21:35:50.303Z,4.57
2024-03-05T21:38:52.809Z,4.57
2024-03-05T21:41:57.243Z,4.57
2024-03-05T21:44:59.772Z,4.57
2024-03-05T21:48:04.733Z,4.61
2024-03-05T21:51:12.487Z,4.60
2024-03-05T21:54:22.943Z,4.57
2024-03-05T21:57:25.665Z,4.64
2024-03-05T22:00:30.415Z,4.59
2024-03-05T22:03:34.742Z,4.50
2024-03-05T22:06:37.309Z,4.44
2024-03-05T22:09:41.509Z,4.45
2024-03-05T22:12:44.498Z,4.43
2024-03-05T22:15:47.151Z,4.43
2024-03-05T22:18:50.933Z,4.44
2024-03-05T22:21:53.436Z,4.43
2024-03-05T22:24:56.355Z,4.37
2024-03-05T22:27:58.864Z,4.25
2024-03-05T22:31:01.429Z,4.15
2024-03-05T22:34:05.594Z,4.08
2024-03-05T22:37:08.870Z,3.99
2024-03-05T22:40:13.207Z,3.98
2024-03-05T22:43:15.795Z,4.09
2024-03-05T22:46:18.280Z,4.19
2024-03-05T22:49:22.382Z,4.28
2024-03-05T22:52:24.875Z,4.30
2024-03-05T22:55:27.960Z,4.32
2024-03-05T22:58:30.516Z,4.25
2024-03-05T23:01:33.701Z,4.22
2024-03-05T23:04:37.635Z,4.23
2024-03-05T23:07:40.231Z,4.18
2024-03-05T23:10:42.807Z,4.16
2024-03-05T23:13:45.388Z,4.10
2024-03-05T23:16:49.890Z,4.05
2024-03-05T23:19:53.905Z,4.03
2024-03-05T23:22:56.828Z,3.95
2024-03-05T23:25:59.415Z,3.91
2024-03-05T23:29:02.014Z,3.86
2024-03-05T23:32:04.698Z,3.80
2024-03-05T23:35:09.292Z,3.74
2024-03-05T23:38:11.961Z,3.62
2024-03-05T23:41:24.672Z,3.58
2024-03-05T23:44:34.295Z,3.53
2024-03-05T23:47:37.030Z,3.53
2024-03-05T23:50:41.000Z,3.50
2024-03-05T23:53:43.782Z,3.42
2024-03-05T23:56:46.262Z,3.45
2024-03-05T23:59:48.808Z,3.47
